createdAt,value
2023-04-13T00:00:32.311Z,2.50
2023-04-13T00:03:36.212Z,2.40
2023-04-13T00:06:39.121Z,2.30
2023-04-13T00:09:41.894Z,2.47
2023-04-13T00:12:47.496Z,2.20
2023-04-13T00:15:53.596Z,2.50
2023-04-13T00:18:56.370Z,1.83
2023-04-13T00:22:00.129Z,2.13
2023-04-13T00:25:02.770Z,2.17
2023-04-13T00:28:06.375Z,2.60
2023-04-13T00:31:10.667Z,2.80
2023-04-13T00:34:13.421Z,2.53
2023-04-13T00:37:16.086Z,2.73
2023-04-13T00:40:19.533Z,2.60
2023-04-13T00:43:22.247Z,2.60
2023-04-13T00:46:26.396Z,2.33
2023-04-13T00:49:30.517Z,2.50
2023-04-13T00:52:38.076Z,2.60
2023-04-13T00:55:42.498Z,2.60
2023-04-13T00:58:45.541Z,2.40
2023-04-13T01:01:51.055Z,2.73
2023-04-13T01:04:55.022Z,2.80
2023-04-13T01:08:08.853Z,3.40
2023-04-13T01:11:18.763Z,3.60
2023-04-13T01:14:30.681Z,3.57
2023-04-13T01:17:37.796Z,3.80
2023-04-13T01:20:45.211Z,3.60
2023-04-13T01:23:56.993Z,3.67
2023-04-13T01:27:09.462Z,3.83
2023-04-13T01:30:14.566Z,3.77
2023-04-13T01:33:17.381Z,3.87
2023-04-13T01:36:20.869Z,4.30
2023-04-13T01:39:25.462Z,4.30
2023-04-13T01:42:28.106Z,4.17
2023-04-13T01:45:40.442Z,4.37
2023-04-13T01:48:48.128Z,4.70
2023-04-13T01:51:53.355Z,4.43
2023-04-13T01:54:57.853Z,4.47
2023-04-13T01:58:01.879Z,4.77
2023-04-13T02:01:08.550Z,4.87
2023-04-13T02:04:11.770Z,5.07
2023-04-13T02:07:14.531Z,4.90
2023-04-13T02:10:17.194Z,4.80
2023-04-13T02:13:19.832Z,5.10
2023-04-13T02:16:25.151Z,4.90
2023-04-13T02:19:27.831Z,5.27
2023-04-13T02:22:30.487Z,5.23
2023-04-13T02:25:33.125Z,5.13
2023-04-13T02:28:35.848Z,4.60
2023-04-13T02:31:43.609Z,5.70
2023-04-13T02:34:46.387Z,5.73
2023-04-13T02:37:49.182Z,5.40
2023-04-13T02:40:55.572Z,5.10
2023-04-13T02:43:58.517Z,5.50
2023-04-13T02:47:02.708Z,5.53
2023-04-13T02:50:06.692Z,5.27
2023-04-13T02:53:09.550Z,6.07
2023-04-13T02:56:12.229Z,5.93
2023-04-13T02:59:16.545Z,5.70
2023-04-13T03:02:20.764Z,5.67
2023-04-13T03:05:24.042Z,5.57
2023-04-13T03:08:27.325Z,5.43
2023-04-13T03:11:29.965Z,5.67
2023-04-13T03:14:33.133Z,6.23
2023-04-13T03:17:40.291Z,6.13
2023-04-13T03:20:43.879Z,6.17
2023-04-13T03:23:46.652Z,6.53
2023-04-13T03:26:49.271Z,7.03
2023-04-13T03:29:51.888Z,6.30
2023-04-13T03:32:56.025Z,6.53
2023-04-13T03:35:59.024Z,6.70
2023-04-13T03:39:01.944Z,7.57
2023-04-13T03:42:04.765Z,7.30
2023-04-13T03:45:08.492Z,7.03
2023-04-13T03:48:12.600Z,7.23
2023-04-13T03:51:16.191Z,6.63
2023-04-13T03:54:18.814Z,7.13
2023-04-13T03:57:22.462Z,6.87
2023-04-13T04:00:25.727Z,7.47
2023-04-13T04:03:30.209Z,8.30
2023-04-13T04:06:32.888Z,7.53
2023-04-13T04:09:35.875Z,7.87
2023-04-13T04:12:38.521Z,7.80
2023-04-13T04:15:41.196Z,7.83
2023-04-13T04:18:45.232Z,7.57
2023-04-13T04:21:47.883Z,8.20
2023-04-13T04:24:52.501Z,8.10
2023-04-13T04:27:57.641Z,8.67
2023-04-13T04:31:01.259Z,8.70
2023-04-13T04:34:05.303Z,13.13
2023-04-13T04:37:19.505Z,9.03
2023-04-13T04:40:23.347Z,8.40
2023-04-13T04:43:27.084Z,8.40
2023-04-13T04:46:29.903Z,8.53
2023-04-13T04:49:34.029Z,8.53
2023-04-13T04:52:36.677Z,8.57
2023-04-13T04:55:39.769Z,7.93
2023-04-13T04:58:42.384Z,8.87
2023-04-13T05:01:45.248Z,8.13
2023-04-13T05:04:49.348Z,8.63
2023-04-13T05:07:52.236Z,8.60
2023-04-13T05:10:54.941Z,8.37
2023-04-13T05:13:57.785Z,7.87
2023-04-13T05:17:01.302Z,8.67
2023-04-13T05:20:06.791Z,8.50
2023-04-13T05:23:09.723Z,7.63
2023-04-13T05:26:13.468Z,7.77
2023-04-13T05:29:16.111Z,8.53
2023-04-13T05:32:18.764Z,7.37
2023-04-13T05:35:23.491Z,7.90
2023-04-13T05:38:26.245Z,7.87
2023-04-13T05:41:28.924Z,8.30
2023-04-13T05:44:31.572Z,7.13
2023-04-13T05:47:34.231Z,7.50
2023-04-13T05:50:38.407Z,6.90
2023-04-13T05:53:41.361Z,7.20
2023-04-13T05:56:44.003Z,8.03
2023-04-13T05:59:46.938Z,7.33
2023-04-13T06:02:50.611Z,7.37
2023-04-13T06:05:54.750Z,6.77
2023-04-13T06:08:57.633Z,6.97
2023-04-13T06:12:00.461Z,6.60
2023-04-13T06:15:04.015Z,5.97
2023-04-13T06:18:07.154Z,5.33
2023-04-13T06:21:11.475Z,5.33
2023-04-13T06:24:14.146Z,5.10
2023-04-13T06:27:16.955Z,4.47
2023-04-13T06:30:19.707Z,4.33
2023-04-13T06:33:23.086Z,4.10
2023-04-13T06:36:27.170Z,4.70
2023-04-13T06:39:31.766Z,4.70
2023-04-13T06:42:36.558Z,4.00
2023-04-13T06:45:39.174Z,4.17
2023-04-13T06:48:41.870Z,3.17
2023-04-13T06:51:45.860Z,2.87
2023-04-13T06:54:48.488Z,3.20
2023-04-13T06:57:51.128Z,2.30
2023-04-13T07:00:53.777Z,2.53
2023-04-13T07:03:56.459Z,2.50
2023-04-13T07:07:00.584Z,2.40
2023-04-13T07:10:03.306Z,1.80
2023-04-13T07:13:06.864Z,2.40
2023-04-13T07:16:12.140Z,1.80
2023-04-13T07:19:14.875Z,1.60
2023-04-13T07:22:18.917Z,2.10
2023-04-13T07:25:21.983Z,2.00
2023-04-13T07:28:25.495Z,1.70
2023-04-13T07:31:28.679Z,1.70
2023-04-13T07:34:31.779Z,1.40
2023-04-13T07:37:35.804Z,1.70
2023-04-13T07:40:38.450Z,1.40
2023-04-13T07:43:41.135Z,1.40
2023-04-13T07:46:43.893Z,1.40
2023-04-13T07:49:46.564Z,4.60
2023-04-13T07:52:50.621Z,1.50
2023-04-13T07:55:53.263Z,1.30
2023-04-13T07:58:55.909Z,1.27
2023-04-13T08:01:59.441Z,1.20
2023-04-13T08:05:02.461Z,1.53
2023-04-13T08:08:06.991Z,1.43
2023-04-13T08:11:09.673Z,1.10
2023-04-13T08:14:12.371Z,1.33
2023-04-13T08:17:15.023Z,1.37
2023-04-13T08:20:18.480Z,1.20
2023-04-13T08:23:22.555Z,1.30
2023-04-13T08:26:26.291Z,1.40
2023-04-13T08:29:29.768Z,1.27
2023-04-13T08:32:32.413Z,1.20
2023-04-13T08:35:38.980Z,1.23
2023-04-13T08:38:43.038Z,1.17
2023-04-13T08:41:47.078Z,1.20
2023-04-13T08:44:52.503Z,1.30
2023-04-13T08:47:55.270Z,1.20
2023-04-13T08:51:01.106Z,1.20
2023-04-13T08:54:05.526Z,1.10
2023-04-13T08:57:10.610Z,1.20
2023-04-13T09:00:18.001Z,1.10
2023-04-13T09:03:25.744Z,1.17
2023-04-13T09:06:33.158Z,1.00
2023-04-13T09:09:39.796Z,1.10
2023-04-13T09:12:42.435Z,1.40
2023-04-13T09:15:47.245Z,1.20
2023-04-13T09:18:51.603Z,1.27
2023-04-13T09:21:54.235Z,1.47
2023-04-13T09:24:59.044Z,1.10
2023-04-13T09:28:01.674Z,1.03
2023-04-13T09:31:05.525Z,1.10
2023-04-13T09:34:08.997Z,1.40
2023-04-13T09:37:13.876Z,1.10
2023-04-13T09:40:19.837Z,1.23
2023-04-13T09:43:22.589Z,1.30
2023-04-13T09:46:25.656Z,1.30
2023-04-13T09:49:38.045Z,1.30
2023-04-13T09:52:41.333Z,1.10
2023-04-13T09:55:47.355Z,1.30
2023-04-13T09:58:51.484Z,1.20
2023-04-13T10:01:54.794Z,1.20
2023-04-13T10:04:58.358Z,1.13
2023-04-13T10:08:02.561Z,1.20
2023-04-13T10:11:11.691Z,1.37
2023-04-13T10:14:17.299Z,1.00
2023-04-13T10:17:32.556Z,1.20
2023-04-13T10:20:36.519Z,1.10
2023-04-13T10:23:39.955Z,1.13
2023-04-13T10:26:45.111Z,1.30
2023-04-13T10:29:48.511Z,1.10
2023-04-13T10:33:02.367Z,1.00
2023-04-13T10:36:05.978Z,1.13
2023-04-13T10:39:09.516Z,1.13
2023-04-13T10:42:14.473Z,0.80
2023-04-13T10:45:20.342Z,1.30
2023-04-13T10:48:23.064Z,1.10
2023-04-13T10:51:25.975Z,1.07
2023-04-13T10:54:30.191Z,1.10
2023-04-13T10:57:36.565Z,0.90
2023-04-13T11:00:46.434Z,0.90
2023-04-13T11:04:03.919Z,1.10
2023-04-13T11:07:08.859Z,1.07
2023-04-13T11:10:11.919Z,0.87
2023-04-13T11:13:16.246Z,1.10
2023-04-13T11:16:19.036Z,0.90
2023-04-13T11:19:21.701Z,1.23
2023-04-13T11:22:27.837Z,0.90
2023-04-13T11:25:31.551Z,1.30
2023-04-13T11:28:40.912Z,0.90
2023-04-13T11:31:43.791Z,1.10
2023-04-13T11:34:48.592Z,0.90
2023-04-13T11:37:53.952Z,1.00
2023-04-13T11:41:15.162Z,0.90
2023-04-13T11:44:20.730Z,1.10
2023-04-13T11:47:23.832Z,1.00
2023-04-13T11:50:26.953Z,1.17
2023-04-13T11:53:30.074Z,1.20
2023-04-13T11:56:32.876Z,1.00
2023-04-13T11:59:38.655Z,1.13
2023-04-13T12:02:59.930Z,1.20
2023-04-13T12:06:05.079Z,1.07
2023-04-13T12:09:13.470Z,1.17
2023-04-13T12:15:43.490Z,0.93
2023-04-13T12:18:52.215Z,1.10
2023-04-13T12:21:57.267Z,1.10
2023-04-13T12:25:02.013Z,1.03
2023-04-13T12:28:05.166Z,1.10
2023-04-13T12:31:12.160Z,1.23
2023-04-13T12:34:14.882Z,1.23
2023-04-13T12:37:17.557Z,1.10
2023-04-13T12:40:20.335Z,1.40
2023-04-13T12:43:23.026Z,1.43
2023-04-13T12:46:27.214Z,1.20
2023-04-13T12:49:29.976Z,1.23
2023-04-13T12:52:32.717Z,1.30
2023-04-13T12:55:35.575Z,1.20
2023-04-13T12:58:38.341Z,1.30
2023-04-13T13:01:42.348Z,1.47
2023-04-13T13:04:45.141Z,1.40
2023-04-13T13:07:48.056Z,1.33
2023-04-13T13:10:50.921Z,1.10
2023-04-13T13:13:53.524Z,1.10
2023-04-13T13:16:57.651Z,1.20
2023-04-13T13:20:01.291Z,1.13
2023-04-13T13:23:05.191Z,1.40
2023-04-13T13:26:23.241Z,1.70
2023-04-13T13:29:30.800Z,1.70
2023-04-13T13:32:35.448Z,1.50
2023-04-13T13:35:38.122Z,1.90
2023-04-13T13:38:40.754Z,1.63
2023-04-13T13:41:43.444Z,1.73
2023-04-13T13:44:46.245Z,1.90
2023-04-13T13:47:54.110Z,2.00
2023-04-13T13:50:56.832Z,1.90
2023-04-13T13:53:59.801Z,1.70
2023-04-13T13:57:03.057Z,1.70
2023-04-13T14:00:13.289Z,1.93
2023-04-13T14:03:17.976Z,2.00
2023-04-13T14:06:21.160Z,2.33
2023-04-13T14:09:23.818Z,1.77
2023-04-13T14:12:26.437Z,2.00
2023-04-13T14:15:29.266Z,1.93
2023-04-13T14:18:33.431Z,1.83
2023-04-13T14:21:36.130Z,2.10
2023-04-13T14:24:38.725Z,1.70
2023-04-13T14:27:41.373Z,1.60
2023-04-13T14:30:44.838Z,1.50
2023-04-13T14:33:48.846Z,1.93
2023-04-13T14:36:54.318Z,1.47
2023-04-13T14:39:57.191Z,1.43
2023-04-13T14:42:59.840Z,1.73
2023-04-13T14:46:03.310Z,1.33
2023-04-13T14:49:07.365Z,1.60
2023-04-13T14:52:10.190Z,1.60
2023-04-13T14:55:13.693Z,1.50
2023-04-13T14:58:16.584Z,1.80
2023-04-13T15:01:21.872Z,2.00
2023-04-13T15:04:26.143Z,1.70
2023-04-13T15:07:29.854Z,1.20
2023-04-13T15:10:34.610Z,1.20
2023-04-13T15:13:37.860Z,1.30
2023-04-13T15:16:40.613Z,1.40
2023-04-13T15:19:44.654Z,1.30
2023-04-13T15:22:47.306Z,2.63
2023-04-13T15:25:49.923Z,1.80
2023-04-13T15:28:52.607Z,1.70
2023-04-13T15:31:55.278Z,1.87
2023-04-13T15:34:59.345Z,2.20
2023-04-13T15:38:02.951Z,2.07
2023-04-13T15:41:05.851Z,1.93
2023-04-13T15:44:08.517Z,1.80
2023-04-13T15:47:11.129Z,1.80
2023-04-13T15:50:15.307Z,1.67
2023-04-13T15:53:17.987Z,1.77
2023-04-13T15:56:21.154Z,1.60
2023-04-13T15:59:25.061Z,1.40
2023-04-13T16:02:29.545Z,1.30
2023-04-13T16:05:33.619Z,1.60
2023-04-13T16:08:36.234Z,1.70
2023-04-13T16:11:39.482Z,1.70
2023-04-13T16:14:45.035Z,1.47
2023-04-13T16:17:48.228Z,1.50
2023-04-13T16:20:54.170Z,1.73
2023-04-13T16:23:57.036Z,2.37
2023-04-13T16:26:59.806Z,1.80
2023-04-13T16:30:04.334Z,2.00
2023-04-13T16:33:07.364Z,2.00
2023-04-13T16:36:11.703Z,1.90
2023-04-13T16:39:14.354Z,1.70
2023-04-13T16:42:17.816Z,2.10
2023-04-13T16:45:20.800Z,1.70
2023-04-13T16:48:23.633Z,1.70
2023-04-13T16:51:27.999Z,1.83
2023-04-13T16:54:30.829Z,1.90
2023-04-13T16:57:34.094Z,1.60
2023-04-13T17:00:36.763Z,1.60
2023-04-13T17:03:39.509Z,2.10
2023-04-13T17:06:43.544Z,1.80
2023-04-13T17:09:46.167Z,1.73
2023-04-13T17:12:48.860Z,1.67
2023-04-13T17:15:51.725Z,1.63
2023-04-13T17:18:54.401Z,1.20
2023-04-13T17:21:58.408Z,1.13
2023-04-13T17:25:01.151Z,1.00
2023-04-13T17:28:03.800Z,0.90
2023-04-13T17:31:07.581Z,1.07
2023-04-13T17:34:10.445Z,1.30
2023-04-13T17:37:14.522Z,0.90
2023-04-13T17:40:17.203Z,0.90
2023-04-13T17:43:19.824Z,1.17
2023-04-13T17:46:22.455Z,1.10
2023-04-13T17:49:26.103Z,1.00
2023-04-13T17:52:30.470Z,1.03
2023-04-13T17:55:33.274Z,1.20
2023-04-13T17:58:36.044Z,1.30
2023-04-13T18:01:38.732Z,0.97
2023-04-13T18:04:41.443Z,0.80
2023-04-13T18:07:45.962Z,0.90
2023-04-13T18:10:48.667Z,1.40
2023-04-13T18:13:51.442Z,1.03
2023-04-13T18:16:54.101Z,1.07
2023-04-13T18:19:56.751Z,1.30
2023-04-13T18:23:00.834Z,1.03
2023-04-13T18:26:03.580Z,1.10
2023-04-13T18:29:06.292Z,2.00
2023-04-13T18:32:09.631Z,3.07
2023-04-13T18:35:13.297Z,3.57
2023-04-13T18:38:17.387Z,3.40
2023-04-13T18:41:20.017Z,3.13
2023-04-13T18:44:22.665Z,3.67
2023-04-13T18:47:26.926Z,3.27
2023-04-13T18:50:29.825Z,2.40
2023-04-13T18:53:33.869Z,1.50
2023-04-13T18:56:36.591Z,1.50
2023-04-13T18:59:39.289Z,1.63
2023-04-13T19:02:46.334Z,1.33
2023-04-13T19:05:49.279Z,1.30
2023-04-13T19:08:53.294Z,1.40
2023-04-13T19:12:01.178Z,3.17
2023-04-13T19:15:04.140Z,3.30
2023-04-13T19:18:07.699Z,3.70
2023-04-13T19:21:10.329Z,4.57
2023-04-13T19:24:14.393Z,5.47
2023-04-13T19:27:17.152Z,4.73
2023-04-13T19:30:20.088Z,3.20
2023-04-13T19:33:22.764Z,3.47
2023-04-13T19:36:26.050Z,2.33
2023-04-13T19:39:30.071Z,1.50
2023-04-13T19:42:33.443Z,1.90
2023-04-13T19:45:36.391Z,1.80
2023-04-13T19:48:40.264Z,1.70
2023-04-13T19:51:43.000Z,2.10
2023-04-13T19:54:47.288Z,1.70
2023-04-13T19:57:49.929Z,1.73
2023-04-13T20:00:52.591Z,1.77
2023-04-13T20:03:55.442Z,2.27
2023-04-13T20:06:58.171Z,1.67
2023-04-13T20:10:02.180Z,1.77
2023-04-13T20:13:04.824Z,1.53
2023-04-13T20:16:07.728Z,1.67
2023-04-13T20:19:11.216Z,1.80
2023-04-13T20:22:14.326Z,1.70
2023-04-13T20:25:18.460Z,1.60
2023-04-13T20:28:21.469Z,1.93
2023-04-13T20:31:25.008Z,1.77
2023-04-13T20:34:28.102Z,1.57
2023-04-13T20:37:30.717Z,1.80
2023-04-13T20:40:36.158Z,1.80
2023-04-13T20:43:39.319Z,1.80
2023-04-13T20:46:49.211Z,1.53
2023-04-13T20:49:54.439Z,1.80
2023-04-13T20:52:59.659Z,1.93
2023-04-13T20:56:03.949Z,2.00
2023-04-13T20:59:07.403Z,1.77
2023-04-13T21:02:10.701Z,2.10
2023-04-13T21:05:13.997Z,2.20
2023-04-13T21:08:16.717Z,1.93
2023-04-13T21:11:21.268Z,1.83
2023-04-13T21:14:24.750Z,2.00
2023-04-13T21:17:27.495Z,1.83
2023-04-13T21:20:30.386Z,2.00
2023-04-13T21:23:33.048Z,2.47
2023-04-13T21:26:37.131Z,2.27
2023-04-13T21:29:39.751Z,2.50
2023-04-13T21:32:42.493Z,2.50
2023-04-13T21:35:45.183Z,2.13
2023-04-13T21:38:47.806Z,2.20
2023-04-13T21:41:51.830Z,1.90
2023-04-13T21:44:55.959Z,2.00
2023-04-13T21:47:58.585Z,1.77
2023-04-13T21:51:01.982Z,2.10
2023-04-13T21:54:05.024Z,2.20
2023-04-13T21:57:09.786Z,2.13
2023-04-13T22:00:14.334Z,2.30
2023-04-13T22:03:17.589Z,2.10
2023-04-13T22:06:20.456Z,2.17
2023-04-13T22:09:23.181Z,2.30
2023-04-13T22:12:27.224Z,2.07
2023-04-13T22:15:29.880Z,2.20
2023-04-13T22:18:32.628Z,2.13
2023-04-13T22:21:36.813Z,2.00
2023-04-13T22:24:39.496Z,2.10
2023-04-13T22:27:43.865Z,2.13
2023-04-13T22:30:47.226Z,2.00
2023-04-13T22:33:49.891Z,1.60
2023-04-13T22:36:53.357Z,1.50
2023-04-13T22:39:55.989Z,1.70
2023-04-13T22:42:59.978Z,1.60
2023-04-13T22:46:02.859Z,1.60
2023-04-13T22:49:05.547Z,1.53
2023-04-13T22:52:08.537Z,1.37
2023-04-13T22:55:11.324Z,1.40
2023-04-13T22:58:15.318Z,1.80
2023-04-13T23:01:17.994Z,2.00
2023-04-13T23:04:20.747Z,1.87
2023-04-13T23:07:23.505Z,2.10
2023-04-13T23:10:26.162Z,2.07
2023-04-13T23:13:30.176Z,1.80
2023-04-13T23:16:33.849Z,2.13
2023-04-13T23:19:36.539Z,1.80
2023-04-13T23:22:39.196Z,1.97
2023-04-13T23:25:41.876Z,2.13
2023-04-13T23:28:46.935Z,2.13
2023-04-13T23:31:49.625Z,2.00
2023-04-13T23:34:52.725Z,1.90
2023-04-13T23:37:55.415Z,2.00
2023-04-13T23:40:58.424Z,2.00
2023-04-13T23:44:02.708Z,2.20
2023-04-13T23:47:06.195Z,1.70
2023-04-13T23:50:09.302Z,1.93
2023-04-13T23:53:12.171Z,2.07
2023-04-13T23:56:14.807Z,1.80
2023-04-13T23:59:18.963Z,2.03
